Terminal Aerodrome Forecast
Issued by NWS

Home | Current Version | Previous Version | Text Only | Print | Product List | Glossary On
Versions: 1 2 3 4 5 6 7 8 9 10 11 12 13 14 15 16 17 18 19 20 21 22
000
FTUS43 KICT 010737 AAA
TAFRSL
TAF AMD
KRSL 010737Z 0108/0206 30013KT P6SM BKN015 OVC035
     FM011200 33013KT P6SM OVC008
     FM011400 35017KT P6SM OVC015=

USA.gov is the U.S. government's official web portal to all federal, state and local government web resources and services.